Time;durP1;ratioP1;P1;durP2;ratioP2;P2;SDS_P1;SDS_P2;PMS_P1;PMS_P2;Temp;Humidity;BMP_temperature;BMP_pressure;BME280_temperature;BME280_humidity;BME280_pressure;Samples;Min_cycle;Max_cycle;Signal;HPM_P1;HPM_P2
2023/01/30 00:00:21;;;;;;;12.65;11.55;;;;;;;;;;4997932;28;20038;-58
2023/01/30 00:02:46;;;;;;;13.93;12.50;;;;;;;;;;4995634;28;20404;-52
2023/01/30 00:05:12;;;;;;;12.05;11.05;;;;;;;;;;4996932;28;20368;-58
2023/01/30 00:07:37;;;;;;;13.13;12.23;;;;;;;;;;4993483;28;20113;-59
2023/01/30 00:10:03;;;;;;;11.18;10.48;;;;;;;;;;4996908;28;20122;-59
2023/01/30 00:12:28;;;;;;;13.48;12.48;;;;;;;;;;4993353;28;20121;-59
2023/01/30 00:14:53;;;;;;;11.75;10.95;;;;;;;;;;4996960;28;20499;-58
2023/01/30 00:17:19;;;;;;;12.15;11.35;;;;;;;;;;4995011;28;20037;-52
2023/01/30 00:19:44;;;;;;;11.80;10.95;;;;;;;;;;4996890;28;20030;-50
2023/01/30 00:22:09;;;;;;;13.82;12.65;;;;;;;;;;4997989;28;20033;-58
2023/01/30 00:24:34;;;;;;;11.07;10.32;;;;;;;;;;4995775;28;20044;-60
2023/01/30 00:27:00;;;;;;;12.50;11.70;;;;;;;;;;4995414;28;20084;-49
2023/01/30 00:29:25;;;;;;;11.90;11.10;;;;;;;;;;4996927;28;20224;-48
2023/01/30 00:31:50;;;;;;;13.57;10.80;;;;;;;;;;4995485;28;20116;-59
2023/01/30 00:34:16;;;;;;;11.60;10.75;;;;;;;;;;4999846;28;20042;-58
2023/01/30 00:36:41;;;;;;;13.68;12.43;;;;;;;;;;4999190;28;20038;-59
2023/01/30 00:39:06;;;;;;;13.13;12.00;;;;;;;;;;4995490;28;20093;-60
2023/01/30 00:47:07;;;;;;;12.57;11.68;;;;;;;;;;4995329;28;20050;-58
2023/01/30 00:49:33;;;;;;;11.38;10.57;;;;;;;;;;4995259;28;20651;-49
2023/01/30 00:51:59;;;;;;;11.77;10.98;;;;;;;;;;4995029;28;20053;-59
2023/01/30 00:54:24;;;;;;;12.43;11.38;;;;;;;;;;4996456;28;20042;-60
2023/01/30 00:56:50;;;;;;;12.20;11.30;;;;;;;;;;4994934;28;20121;-57
2023/01/30 00:59:15;;;;;;;11.95;11.15;;;;;;;;;;4997847;28;20025;-58
2023/01/30 01:01:40;;;;;;;11.63;10.63;;;;;;;;;;4995130;28;20042;-59
2023/01/30 01:04:07;;;;;;;12.57;11.70;;;;;;;;;;4993933;28;20022;-58
2023/01/30 01:06:33;;;;;;;11.73;10.93;;;;;;;;;;4994318;28;20125;-58
2023/01/30 01:08:58;;;;;;;11.75;10.95;;;;;;;;;;4993540;28;20128;-58
2023/01/30 01:11:24;;;;;;;10.88;10.18;;;;;;;;;;4995897;28;20097;-58
2023/01/30 01:14:00;;;;;;;10.80;10.07;;;;;;;;;;4993441;28;20050;-59
2023/01/30 01:16:27;;;;;;;11.10;10.40;;;;;;;;;;4995202;28;20042;-57
2023/01/30 01:18:53;;;;;;;12.73;11.82;;;;;;;;;;4991702;28;20540;-58
2023/01/30 01:21:19;;;;;;;13.23;12.23;;;;;;;;;;4993723;28;20470;-58
2023/01/30 01:23:49;;;;;;;11.48;10.68;;;;;;;;;;4991450;28;20035;-58
2023/01/30 01:26:14;;;;;;;13.10;12.15;;;;;;;;;;4998651;28;20036;-61
2023/01/30 01:28:40;;;;;;;12.63;11.77;;;;;;;;;;4994484;28;20116;-58
2023/01/30 01:31:09;;;;;;;12.45;11.65;;;;;;;;;;4992772;28;20141;-58
2023/01/30 01:33:35;;;;;;;12.45;11.45;;;;;;;;;;4995477;28;20046;-48
2023/01/30 01:36:00;;;;;;;17.13;11.30;;;;;;;;;;4993895;28;20138;-50
2023/01/30 01:38:25;;;;;;;12.75;11.75;;;;;;;;;;4995108;28;20528;-49
2023/01/30 01:41:05;;;;;;;11.90;10.90;;;;;;;;;;4999701;28;20122;-52
2023/01/30 01:43:57;;;;;;;11.75;10.88;;;;;;;;;;4998168;28;20042;-50
2023/01/30 01:46:28;;;;;;;13.63;12.23;;;;;;;;;;4994822;28;20117;-46
2023/01/30 01:48:56;;;;;;;12.50;11.40;;;;;;;;;;4995791;28;20956;-51
2023/01/30 01:51:32;;;;;;;11.88;11.00;;;;;;;;;;4996252;28;20076;-47
2023/01/30 01:54:04;;;;;;;12.88;11.93;;;;;;;;;;4996559;28;20079;-49
2023/01/30 01:56:33;;;;;;;11.93;11.10;;;;;;;;;;4995172;28;20050;-51
2023/01/30 01:59:07;;;;;;;12.02;11.23;;;;;;;;;;4997784;28;20038;-47
2023/01/30 02:01:33;;;;;;;13.20;12.05;;;;;;;;;;4998505;28;20267;-48
2023/01/30 02:04:04;;;;;;;13.00;11.95;;;;;;;;;;4997340;28;20034;-47
2023/01/30 02:06:31;;;;;;;13.18;12.23;;;;;;;;;;4995759;28;20057;-47
2023/01/30 02:09:01;;;;;;;13.80;12.90;;;;;;;;;;4998572;28;20045;-46
2023/01/30 02:11:36;;;;;;;12.75;11.80;;;;;;;;;;5001917;28;20049;-48
2023/01/30 02:14:02;;;;;;;12.05;11.23;;;;;;;;;;4995239;28;20045;-50
2023/01/30 02:16:27;;;;;;;13.65;12.60;;;;;;;;;;4999606;28;20041;-48
2023/01/30 02:18:53;;;;;;;12.45;11.55;;;;;;;;;;5002933;28;20034;-47
2023/01/30 02:21:36;;;;;;;11.85;11.05;;;;;;;;;;4998103;28;20049;-48
2023/01/30 02:24:36;;;;;;;11.43;10.63;;;;;;;;;;4999376;28;20157;-46
2023/01/30 02:27:23;;;;;;;13.23;12.32;;;;;;;;;;4982872;28;20069;-46
2023/01/30 02:30:20;;;;;;;11.40;10.70;;;;;;;;;;4997272;28;20427;-49
2023/01/30 02:33:02;;;;;;;12.68;11.80;;;;;;;;;;4997923;28;20046;-47
2023/01/30 02:36:02;;;;;;;12.18;11.27;;;;;;;;;;4999642;28;20565;-46
2023/01/30 02:39:01;;;;;;;14.13;13.13;;;;;;;;;;4996485;28;20377;-46
2023/01/30 02:41:35;;;;;;;13.15;12.15;;;;;;;;;;4997342;28;20046;-48
2023/01/30 02:44:28;;;;;;;11.70;10.88;;;;;;;;;;5004194;28;20401;-47
2023/01/30 02:47:12;;;;;;;13.02;12.23;;;;;;;;;;5010486;28;20042;-49
2023/01/30 02:49:43;;;;;;;12.48;11.63;;;;;;;;;;4998368;28;20052;-55
2023/01/30 02:52:11;;;;;;;11.15;10.45;;;;;;;;;;4996387;28;20038;-46
2023/01/30 02:54:36;;;;;;;12.32;11.52;;;;;;;;;;5000054;28;20141;-54
2023/01/30 02:57:01;;;;;;;12.88;11.98;;;;;;;;;;4994734;28;20520;-53
2023/01/30 02:59:30;;;;;;;11.93;11.13;;;;;;;;;;4999739;28;20366;-54
2023/01/30 03:02:20;;;;;;;11.80;11.10;;;;;;;;;;4996811;28;20073;-53
2023/01/30 03:04:51;;;;;;;13.07;12.18;;;;;;;;;;4997359;28;20047;-50
2023/01/30 03:07:28;;;;;;;12.15;11.25;;;;;;;;;;4995222;28;20050;-52
2023/01/30 03:10:08;;;;;;;11.95;11.15;;;;;;;;;;4998939;28;20053;-51
2023/01/30 03:12:51;;;;;;;12.02;11.23;;;;;;;;;;4995608;28;20098;-53
2023/01/30 03:15:27;;;;;;;11.98;11.07;;;;;;;;;;4996566;28;20100;-54
2023/01/30 03:17:53;;;;;;;12.10;11.30;;;;;;;;;;4995724;28;20113;-50
2023/01/30 03:20:19;;;;;;;11.32;10.55;;;;;;;;;;4996459;28;20037;-51
2023/01/30 03:22:45;;;;;;;12.45;11.52;;;;;;;;;;4995028;28;20409;-51
2023/01/30 03:25:18;;;;;;;14.35;13.00;;;;;;;;;;4993150;28;20026;-53
2023/01/30 03:27:44;;;;;;;13.18;12.10;;;;;;;;;;4995688;28;20078;-54
2023/01/30 03:30:10;;;;;;;12.77;11.82;;;;;;;;;;4994920;28;20053;-53
2023/01/30 03:32:35;;;;;;;10.82;10.10;;;;;;;;;;4995486;28;20057;-54
2023/01/30 03:35:01;;;;;;;12.57;11.60;;;;;;;;;;4994551;28;20041;-50
2023/01/30 03:37:26;;;;;;;13.05;11.98;;;;;;;;;;4996242;28;20038;-54
2023/01/30 03:39:52;;;;;;;12.45;11.50;;;;;;;;;;5004506;28;20100;-50
2023/01/30 03:42:17;;;;;;;12.43;11.63;;;;;;;;;;4998174;28;20102;-53
2023/01/30 03:44:43;;;;;;;12.60;11.50;;;;;;;;;;4997781;28;20443;-53
2023/01/30 03:47:08;;;;;;;12.38;11.43;;;;;;;;;;4998510;28;20360;-54
2023/01/30 03:49:33;;;;;;;12.32;11.43;;;;;;;;;;4998059;28;20429;-52
2023/01/30 03:51:59;;;;;;;11.07;10.30;;;;;;;;;;4994834;28;20164;-51
2023/01/30 03:54:24;;;;;;;12.50;11.50;;;;;;;;;;4996275;28;20112;-51
2023/01/30 03:56:49;;;;;;;12.35;11.27;;;;;;;;;;4995592;28;20052;-55
2023/01/30 03:59:15;;;;;;;12.00;11.20;;;;;;;;;;4996995;28;20037;-55
2023/01/30 04:01:40;;;;;;;13.63;12.70;;;;;;;;;;4994283;28;20045;-53
2023/01/30 04:04:05;;;;;;;11.80;11.02;;;;;;;;;;4995309;28;20037;-53
2023/01/30 04:06:31;;;;;;;13.15;12.00;;;;;;;;;;4997891;28;20034;-54
2023/01/30 04:08:56;;;;;;;12.98;11.93;;;;;;;;;;4995226;28;20042;-55
2023/01/30 04:11:21;;;;;;;13.60;12.38;;;;;;;;;;4996675;28;20089;-53
2023/01/30 04:13:47;;;;;;;11.80;10.88;;;;;;;;;;4993733;28;20431;-52
2023/01/30 04:16:18;;;;;;;12.55;11.55;;;;;;;;;;4996405;28;20519;-54
2023/01/30 04:18:43;;;;;;;11.13;10.43;;;;;;;;;;4995363;28;20049;-52
2023/01/30 04:21:09;;;;;;;12.50;11.52;;;;;;;;;;4993874;28;20628;-55
2023/01/30 04:23:35;;;;;;;12.30;11.50;;;;;;;;;;4993897;28;20534;-55
2023/01/30 04:26:00;;;;;;;13.45;12.52;;;;;;;;;;4994663;28;20499;-52
2023/01/30 04:28:25;;;;;;;13.38;12.38;;;;;;;;;;4995814;28;20049;-53
2023/01/30 04:30:52;;;;;;;12.25;11.45;;;;;;;;;;4996658;28;20034;-53
2023/01/30 04:33:17;;;;;;;11.80;11.00;;;;;;;;;;4989633;28;20049;-52
2023/01/30 04:35:57;;;;;;;13.88;12.88;;;;;;;;;;4994006;28;20103;-52
2023/01/30 04:38:25;;;;;;;11.75;10.98;;;;;;;;;;4994224;28;20452;-55
2023/01/30 04:40:52;;;;;;;18.65;13.00;;;;;;;;;;4995819;28;20541;-51
2023/01/30 04:43:22;;;;;;;15.00;12.98;;;;;;;;;;4996122;28;20026;-54
2023/01/30 04:45:48;;;;;;;14.20;13.07;;;;;;;;;;4994829;28;20034;-53
2023/01/30 04:48:15;;;;;;;12.70;11.75;;;;;;;;;;5011371;28;20372;-59
2023/01/30 04:50:41;;;;;;;13.73;12.70;;;;;;;;;;4995563;28;20056;-55
2023/01/30 04:53:08;;;;;;;13.52;12.52;;;;;;;;;;4995232;28;20048;-47
2023/01/30 04:55:34;;;;;;;13.25;12.10;;;;;;;;;;4998888;28;20038;-54
2023/01/30 04:57:59;;;;;;;13.52;12.43;;;;;;;;;;4996333;28;20540;-47
2023/01/30 05:00:25;;;;;;;13.65;12.70;;;;;;;;;;4993223;28;20030;-45
2023/01/30 05:02:51;;;;;;;14.50;13.50;;;;;;;;;;4993157;28;20095;-46
2023/01/30 05:05:16;;;;;;;14.05;13.05;;;;;;;;;;4994973;28;20040;-45
2023/01/30 05:07:42;;;;;;;12.90;12.02;;;;;;;;;;4993120;28;20034;-46
2023/01/30 05:10:08;;;;;;;14.32;12.93;;;;;;;;;;4995031;28;20038;-46
2023/01/30 05:12:33;;;;;;;13.88;12.73;;;;;;;;;;4995779;28;20049;-46
2023/01/30 05:14:59;;;;;;;13.80;12.80;;;;;;;;;;4997433;28;20464;-50
2023/01/30 05:17:24;;;;;;;12.82;12.02;;;;;;;;;;5001832;28;20054;-45
2023/01/30 05:19:49;;;;;;;14.90;13.70;;;;;;;;;;4998697;28;20061;-47
2023/01/30 05:22:15;;;;;;;12.57;11.77;;;;;;;;;;4998749;28;20127;-47
2023/01/30 05:24:40;;;;;;;12.40;11.60;;;;;;;;;;4999119;28;20042;-46
2023/01/30 05:27:05;;;;;;;13.15;12.30;;;;;;;;;;4995395;28;20129;-45
2023/01/30 05:29:31;;;;;;;13.43;12.52;;;;;;;;;;4997112;28;20057;-46
2023/01/30 05:31:56;;;;;;;12.27;11.48;;;;;;;;;;4997471;28;20460;-45
2023/01/30 05:34:21;;;;;;;13.45;12.25;;;;;;;;;;4999647;28;20030;-46
2023/01/30 05:36:47;;;;;;;14.00;13.00;;;;;;;;;;4999601;28;20471;-45
2023/01/30 05:39:12;;;;;;;13.15;12.20;;;;;;;;;;4996978;28;20065;-46
2023/01/30 05:41:38;;;;;;;12.50;11.70;;;;;;;;;;4998601;28;20088;-46
2023/01/30 05:44:03;;;;;;;14.25;13.20;;;;;;;;;;4997888;28;20104;-45
2023/01/30 05:46:28;;;;;;;13.57;12.65;;;;;;;;;;4998295;28;20115;-48
2023/01/30 05:48:54;;;;;;;13.63;12.68;;;;;;;;;;5000922;28;20676;-47
2023/01/30 05:51:22;;;;;;;12.80;11.90;;;;;;;;;;4998945;28;20471;-45
2023/01/30 05:53:47;;;;;;;12.98;11.98;;;;;;;;;;5001011;28;20100;-45
2023/01/30 05:56:13;;;;;;;12.38;11.52;;;;;;;;;;5001713;28;20042;-48
2023/01/30 05:58:38;;;;;;;12.57;11.68;;;;;;;;;;4996545;28;20483;-44
2023/01/30 06:01:07;;;;;;;12.48;11.68;;;;;;;;;;4997869;28;20104;-46
2023/01/30 06:03:32;;;;;;;12.13;11.32;;;;;;;;;;4996284;28;20087;-46
2023/01/30 06:06:00;;;;;;;13.32;12.43;;;;;;;;;;4995625;28;20410;-45
2023/01/30 06:08:25;;;;;;;14.55;13.35;;;;;;;;;;4997913;28;20495;-45
2023/01/30 06:10:51;;;;;;;13.30;12.10;;;;;;;;;;4999216;28;20048;-47
2023/01/30 06:13:16;;;;;;;11.95;11.05;;;;;;;;;;4998152;28;20621;-45
2023/01/30 06:15:42;;;;;;;13.60;12.50;;;;;;;;;;4997506;28;20069;-46
2023/01/30 06:18:07;;;;;;;13.65;12.75;;;;;;;;;;4995823;28;20532;-44
2023/01/30 06:20:32;;;;;;;13.52;12.52;;;;;;;;;;4997764;28;20038;-46
2023/01/30 06:22:58;;;;;;;14.30;13.30;;;;;;;;;;4996540;28;20021;-46
2023/01/30 06:25:23;;;;;;;12.40;11.48;;;;;;;;;;4998229;28;20081;-45
2023/01/30 06:27:48;;;;;;;12.80;11.95;;;;;;;;;;5005641;28;20042;-46
2023/01/30 06:30:14;;;;;;;13.45;12.13;;;;;;;;;;4997464;28;20061;-44
2023/01/30 06:32:40;;;;;;;14.60;13.10;;;;;;;;;;4996657;28;20042;-47
2023/01/30 06:35:06;;;;;;;13.40;12.32;;;;;;;;;;4995700;28;20467;-45
2023/01/30 06:37:31;;;;;;;13.15;12.10;;;;;;;;;;4996757;28;20705;-46
2023/01/30 06:39:56;;;;;;;12.90;11.90;;;;;;;;;;5000551;28;20035;-50
2023/01/30 06:42:22;;;;;;;12.32;11.52;;;;;;;;;;4995565;28;20205;-46
2023/01/30 06:44:47;;;;;;;11.90;11.10;;;;;;;;;;4998173;28;20045;-47
2023/01/30 06:47:12;;;;;;;12.23;11.43;;;;;;;;;;4997053;28;20030;-46
2023/01/30 06:49:38;;;;;;;12.75;11.85;;;;;;;;;;4997691;28;20089;-47
2023/01/30 06:52:03;;;;;;;12.10;11.30;;;;;;;;;;4996820;28;20101;-46
2023/01/30 06:54:29;;;;;;;12.38;11.32;;;;;;;;;;4996147;28;20041;-47
2023/01/30 06:56:54;;;;;;;13.10;12.20;;;;;;;;;;4997670;28;20026;-47
2023/01/30 06:59:20;;;;;;;11.82;11.02;;;;;;;;;;4995652;28;20066;-46
2023/01/30 07:01:45;;;;;;;12.57;11.68;;;;;;;;;;4997945;28;20041;-48
2023/01/30 07:04:11;;;;;;;12.30;11.50;;;;;;;;;;4995004;28;20348;-48
2023/01/30 07:06:36;;;;;;;11.32;10.52;;;;;;;;;;4997503;28;20034;-45
2023/01/30 07:09:02;;;;;;;12.25;11.40;;;;;;;;;;4997246;28;20041;-45
2023/01/30 07:11:27;;;;;;;10.95;10.25;;;;;;;;;;4996326;28;20034;-46
2023/01/30 07:13:52;;;;;;;11.38;10.63;;;;;;;;;;4995219;28;20029;-45
2023/01/30 07:16:18;;;;;;;12.20;11.30;;;;;;;;;;4997014;28;20196;-46
2023/01/30 07:18:43;;;;;;;13.38;12.35;;;;;;;;;;4996672;28;20040;-46
2023/01/30 07:21:08;;;;;;;11.70;10.93;;;;;;;;;;4995920;28;20480;-46
2023/01/30 07:23:34;;;;;;;11.80;11.00;;;;;;;;;;4994790;28;20038;-46
2023/01/30 07:26:04;;;;;;;12.40;11.50;;;;;;;;;;4996556;28;20052;-49
2023/01/30 07:28:29;;;;;;;12.70;11.77;;;;;;;;;;4993992;28;20030;-47
2023/01/30 07:30:58;;;;;;;12.23;11.43;;;;;;;;;;4996086;28;20052;-49
2023/01/30 07:33:23;;;;;;;11.45;10.65;;;;;;;;;;4994795;28;20336;-48
2023/01/30 07:35:49;;;;;;;11.18;10.45;;;;;;;;;;4996914;28;20048;-47
2023/01/30 07:38:14;;;;;;;11.73;10.93;;;;;;;;;;4994932;28;20030;-47
2023/01/30 07:40:39;;;;;;;11.20;10.40;;;;;;;;;;4995928;28;20505;-47
2023/01/30 07:43:08;;;;;;;10.98;10.27;;;;;;;;;;4993362;28;20384;-49
2023/01/30 07:45:39;;;;;;;11.65;10.85;;;;;;;;;;4996479;28;20408;-50
2023/01/30 07:48:06;;;;;;;12.25;11.40;;;;;;;;;;4995106;28;20491;-48
2023/01/30 07:50:32;;;;;;;11.75;10.95;;;;;;;;;;4994901;28;20133;-47
2023/01/30 07:52:57;;;;;;;10.82;10.13;;;;;;;;;;4994701;28;20733;-48
2023/01/30 07:55:22;;;;;;;10.95;10.25;;;;;;;;;;4993157;28;20411;-48
2023/01/30 07:57:48;;;;;;;11.88;11.07;;;;;;;;;;4996439;28;20041;-48
2023/01/30 08:00:14;;;;;;;10.73;10.02;;;;;;;;;;4995285;28;20522;-48
2023/01/30 08:02:39;;;;;;;11.35;10.57;;;;;;;;;;4995438;28;20064;-47
2023/01/30 08:05:05;;;;;;;11.10;10.40;;;;;;;;;;4995414;28;20029;-47
2023/01/30 08:07:30;;;;;;;11.50;10.73;;;;;;;;;;4996821;28;20049;-46
2023/01/30 08:09:55;;;;;;;12.38;11.45;;;;;;;;;;4993924;28;20021;-46
2023/01/30 08:12:21;;;;;;;13.15;12.20;;;;;;;;;;4995448;28;20554;-47
2023/01/30 08:14:46;;;;;;;12.07;11.27;;;;;;;;;;4994409;28;20570;-46
2023/01/30 08:17:11;;;;;;;11.73;10.93;;;;;;;;;;4993948;28;20041;-49
2023/01/30 08:19:37;;;;;;;11.73;10.95;;;;;;;;;;4995233;28;20287;-48
2023/01/30 08:22:02;;;;;;;11.25;10.55;;;;;;;;;;4994165;28;20137;-48
2023/01/30 08:24:28;;;;;;;12.77;11.52;;;;;;;;;;4995193;28;20129;-49
2023/01/30 08:26:53;;;;;;;12.32;11.15;;;;;;;;;;4995212;28;20053;-49
2023/01/30 08:29:18;;;;;;;11.45;10.75;;;;;;;;;;4994274;28;20076;-49
2023/01/30 08:31:44;;;;;;;11.45;10.70;;;;;;;;;;4994454;28;20042;-49
2023/01/30 08:34:09;;;;;;;11.95;11.13;;;;;;;;;;4992644;28;20030;-46
2023/01/30 08:36:34;;;;;;;11.85;11.05;;;;;;;;;;4997494;28;20153;-47
2023/01/30 08:39:00;;;;;;;11.07;10.38;;;;;;;;;;4994862;28;20096;-47
2023/01/30 08:41:27;;;;;;;11.02;10.30;;;;;;;;;;4994998;28;20030;-48
2023/01/30 08:43:52;;;;;;;11.63;10.82;;;;;;;;;;4993882;28;20030;-49
2023/01/30 08:46:19;;;;;;;11.98;11.15;;;;;;;;;;4992531;28;20551;-46
2023/01/30 08:48:45;;;;;;;12.13;11.32;;;;;;;;;;4995436;28;20100;-46
2023/01/30 08:51:11;;;;;;;10.93;10.23;;;;;;;;;;4991903;28;20042;-47
2023/01/30 08:53:36;;;;;;;10.90;10.20;;;;;;;;;;4989688;28;20048;-46
2023/01/30 08:56:01;;;;;;;10.68;9.95;;;;;;;;;;4993695;28;20121;-47
2023/01/30 08:58:27;;;;;;;10.90;10.20;;;;;;;;;;4995605;28;20456;-47
2023/01/30 09:00:52;;;;;;;10.80;10.00;;;;;;;;;;4997379;28;20034;-46
2023/01/30 09:03:18;;;;;;;10.70;10.00;;;;;;;;;;4996251;28;20041;-47
2023/01/30 09:05:43;;;;;;;10.73;9.90;;;;;;;;;;4994442;28;20369;-49
2023/01/30 09:08:08;;;;;;;11.68;10.93;;;;;;;;;;4995192;28;20030;-47
2023/01/30 09:10:34;;;;;;;11.02;10.32;;;;;;;;;;4995408;28;20096;-50
2023/01/30 09:12:59;;;;;;;10.20;9.40;;;;;;;;;;4997696;28;20464;-47
2023/01/30 09:15:25;;;;;;;12.60;11.80;;;;;;;;;;4996519;28;20128;-47
2023/01/30 09:17:51;;;;;;;10.15;9.50;;;;;;;;;;5002405;28;20593;-46
2023/01/30 09:20:19;;;;;;;11.50;10.35;;;;;;;;;;4978299;28;20042;-48
2023/01/30 09:22:44;;;;;;;10.25;9.50;;;;;;;;;;4993407;28;20128;-46
2023/01/30 09:25:09;;;;;;;10.23;9.52;;;;;;;;;;4993558;28;20121;-47
2023/01/30 09:27:35;;;;;;;9.88;9.18;;;;;;;;;;4998148;28;20049;-48
2023/01/30 09:30:02;;;;;;;11.43;10.73;;;;;;;;;;4993354;28;20368;-47
2023/01/30 09:32:27;;;;;;;11.30;10.48;;;;;;;;;;4993254;28;20367;-51
2023/01/30 09:34:53;;;;;;;11.20;10.40;;;;;;;;;;5001371;28;20038;-50
2023/01/30 09:37:18;;;;;;;11.07;10.38;;;;;;;;;;4993142;28;20068;-47
2023/01/30 09:39:43;;;;;;;10.98;10.18;;;;;;;;;;4993424;28;20121;-46
2023/01/30 09:42:27;;;;;;;11.55;10.85;;;;;;;;;;4994873;28;20268;-47
2023/01/30 09:45:24;;;;;;;10.75;10.05;;;;;;;;;;4995989;28;20648;-46
2023/01/30 09:47:58;;;;;;;10.88;10.20;;;;;;;;;;4995128;28;20033;-45
2023/01/30 09:50:51;;;;;;;10.50;9.80;;;;;;;;;;4996017;28;20030;-46
2023/01/30 09:53:33;;;;;;;10.57;9.88;;;;;;;;;;4994831;28;20043;-45
2023/01/30 09:55:59;;;;;;;11.25;10.55;;;;;;;;;;4993871;28;20084;-47
2023/01/30 09:58:31;;;;;;;10.90;10.20;;;;;;;;;;4993760;28;20537;-47
2023/01/30 10:01:06;;;;;;;10.93;10.23;;;;;;;;;;4997254;28;20045;-46
2023/01/30 10:03:41;;;;;;;10.13;9.52;;;;;;;;;;4997894;28;20045;-47
2023/01/30 10:06:13;;;;;;;9.93;9.32;;;;;;;;;;4996536;28;20535;-47
2023/01/30 10:09:01;;;;;;;10.15;9.55;;;;;;;;;;4998705;28;20073;-50
2023/01/30 10:11:39;;;;;;;10.88;10.18;;;;;;;;;;4998193;28;20038;-46
2023/01/30 10:14:35;;;;;;;11.10;10.40;;;;;;;;;;4995611;28;20129;-49
2023/01/30 10:17:09;;;;;;;10.68;10.05;;;;;;;;;;4999093;28;20042;-50
2023/01/30 10:19:55;;;;;;;11.38;10.68;;;;;;;;;;4988652;28;20034;-46
2023/01/30 10:22:45;;;;;;;11.77;11.07;;;;;;;;;;4998643;28;20045;-48
2023/01/30 10:25:34;;;;;;;11.37;10.67;;;;;;;;;;4998949;28;20495;-49
2023/01/30 10:28:17;;;;;;;11.75;11.05;;;;;;;;;;4999761;28;20034;-49
2023/01/30 10:30:46;;;;;;;12.52;11.40;;;;;;;;;;4999243;28;20040;-50
2023/01/30 10:33:21;;;;;;;11.50;10.80;;;;;;;;;;4996570;28;20029;-51
2023/01/30 10:35:58;;;;;;;11.98;11.27;;;;;;;;;;4999295;28;20367;-48
2023/01/30 10:38:32;;;;;;;11.85;11.15;;;;;;;;;;4995110;28;20601;-46
2023/01/30 10:41:19;;;;;;;11.32;10.63;;;;;;;;;;4997405;28;20053;-46
2023/01/30 10:43:58;;;;;;;11.25;10.55;;;;;;;;;;4997790;28;20056;-46
2023/01/30 10:46:34;;;;;;;11.10;10.40;;;;;;;;;;4996999;28;20045;-47
2023/01/30 10:49:12;;;;;;;11.18;10.48;;;;;;;;;;4998387;28;20110;-50
2023/01/30 10:51:47;;;;;;;10.45;9.85;;;;;;;;;;4998966;28;20038;-46
2023/01/30 10:54:29;;;;;;;10.80;10.15;;;;;;;;;;4996695;28;20034;-46
2023/01/30 10:57:13;;;;;;;;;;;;;;;;;;4997152;28;20499;-47
2023/01/30 10:59:54;;;;;;;9.80;9.20;;;;;;;;;;4997554;28;19945;-46
2023/01/30 11:02:41;;;;;;;10.32;9.73;;;;;;;;;;4995981;28;20030;-48
2023/01/30 11:05:15;;;;;;;11.00;10.30;;;;;;;;;;4995613;28;20038;-45
2023/01/30 11:07:42;;;;;;;10.98;10.30;;;;;;;;;;4993852;28;20053;-47
2023/01/30 11:10:24;;;;;;;11.70;11.00;;;;;;;;;;4999569;28;20399;-47
2023/01/30 11:12:54;;;;;;;11.77;11.07;;;;;;;;;;4996018;28;20030;-46
2023/01/30 11:15:23;;;;;;;11.60;10.90;;;;;;;;;;4996476;28;20089;-46
2023/01/30 11:17:49;;;;;;;11.88;11.18;;;;;;;;;;4995705;28;20074;-49
2023/01/30 11:20:17;;;;;;;11.50;10.80;;;;;;;;;;4994442;28;20445;-46
2023/01/30 11:22:53;;;;;;;11.65;10.95;;;;;;;;;;4996315;28;20034;-48
2023/01/30 11:25:21;;;;;;;11.07;10.38;;;;;;;;;;5003853;28;20049;-45
2023/01/30 11:27:52;;;;;;;11.25;10.55;;;;;;;;;;4995681;28;20120;-50
2023/01/30 11:30:20;;;;;;;13.13;11.98;;;;;;;;;;4996565;28;20066;-47
2023/01/30 11:32:47;;;;;;;11.68;10.98;;;;;;;;;;4993160;28;20041;-47
2023/01/30 11:35:13;;;;;;;10.45;9.85;;;;;;;;;;4995331;28;20042;-46
2023/01/30 11:37:40;;;;;;;12.23;11.52;;;;;;;;;;4993389;28;20124;-47
2023/01/30 11:40:22;;;;;;;11.73;11.02;;;;;;;;;;4998535;28;20060;-46
2023/01/30 11:42:50;;;;;;;11.23;10.52;;;;;;;;;;4996663;28;20037;-47
2023/01/30 11:45:17;;;;;;;11.68;10.98;;;;;;;;;;4995142;28;20025;-47
2023/01/30 11:47:53;;;;;;;11.82;11.13;;;;;;;;;;4997207;28;20057;-48
2023/01/30 11:50:22;;;;;;;12.52;11.80;;;;;;;;;;4994078;28;20042;-46
2023/01/30 11:52:48;;;;;;;11.48;10.77;;;;;;;;;;4996570;28;20396;-45
2023/01/30 11:55:17;;;;;;;12.40;11.70;;;;;;;;;;4996081;28;20034;-47
2023/01/30 11:57:47;;;;;;;11.45;10.75;;;;;;;;;;4996421;28;20341;-48
2023/01/30 12:00:24;;;;;;;11.60;10.90;;;;;;;;;;4998483;28;20041;-47
2023/01/30 12:02:53;;;;;;;11.75;11.05;;;;;;;;;;4994104;28;20031;-50
2023/01/30 12:05:25;;;;;;;12.05;11.35;;;;;;;;;;4996129;28;20044;-46
2023/01/30 12:07:51;;;;;;;11.95;11.23;;;;;;;;;;4992706;28;20045;-48
2023/01/30 12:10:23;;;;;;;11.25;10.55;;;;;;;;;;4994137;28;20403;-49
2023/01/30 12:12:51;;;;;;;11.88;11.07;;;;;;;;;;4994774;28;20041;-46
2023/01/30 12:15:29;;;;;;;11.77;11.07;;;;;;;;;;4996069;28;20052;-46
2023/01/30 12:17:57;;;;;;;10.57;9.98;;;;;;;;;;4996434;28;20030;-46
2023/01/30 12:20:29;;;;;;;11.07;10.38;;;;;;;;;;4996630;28;20074;-45
2023/01/30 12:23:06;;;;;;;11.30;10.60;;;;;;;;;;4994656;28;20053;-49
2023/01/30 12:25:38;;;;;;;10.68;9.98;;;;;;;;;;4995709;28;20052;-51
2023/01/30 12:28:17;;;;;;;10.50;9.90;;;;;;;;;;4995954;28;20034;-51
2023/01/30 12:30:42;;;;;;;10.98;10.27;;;;;;;;;;4995564;28;20053;-48
2023/01/30 12:33:14;;;;;;;11.43;10.73;;;;;;;;;;4997375;28;20057;-48
2023/01/30 12:35:45;;;;;;;;;;;;;;;;;;4997200;28;20042;-48
2023/01/30 12:38:29;;;;;;;10.60;10.00;;;;;;;;;;4991322;28;20629;-50
2023/01/30 12:41:09;;;;;;;10.27;9.68;;;;;;;;;;4999173;28;20498;-47
2023/01/30 12:44:08;;;;;;;11.00;10.32;;;;;;;;;;4995731;28;20048;-48
2023/01/30 12:47:02;;;;;;;11.05;10.35;;;;;;;;;;4996744;28;20108;-48
2023/01/30 12:49:44;;;;;;;11.10;10.40;;;;;;;;;;4998405;28;20042;-47
2023/01/30 12:52:36;;;;;;;11.27;10.57;;;;;;;;;;4995674;28;20037;-48
2023/01/30 12:55:23;;;;;;;10.63;10.00;;;;;;;;;;4995697;28;20637;-47
2023/01/30 12:58:31;;;;;;;11.10;10.40;;;;;;;;;;4994346;28;20078;-47
2023/01/30 13:01:23;;;;;;;10.82;10.15;;;;;;;;;;4990709;28;20038;-47
2023/01/30 13:04:23;;;;;;;11.85;11.15;;;;;;;;;;4994680;28;20040;-47
2023/01/30 13:07:32;;;;;;;10.80;10.10;;;;;;;;;;4995072;28;20050;-46
2023/01/30 13:10:00;;;;;;;10.43;9.82;;;;;;;;;;4996223;28;20062;-50
2023/01/30 13:12:51;;;;;;;10.35;9.70;;;;;;;;;;4995838;28;20048;-47
2023/01/30 13:15:29;;;;;;;10.60;9.98;;;;;;;;;;4996846;28;20038;-48
2023/01/30 13:18:16;;;;;;;11.18;10.48;;;;;;;;;;4995026;28;20034;-46
2023/01/30 13:20:54;;;;;;;10.18;9.57;;;;;;;;;;4994317;28;20034;-47
2023/01/30 13:23:44;;;;;;;10.25;9.65;;;;;;;;;;4995107;28;20029;-47
2023/01/30 13:26:18;;;;;;;10.10;9.50;;;;;;;;;;4994977;28;20041;-47
2023/01/30 13:28:43;;;;;;;11.00;10.30;;;;;;;;;;4995703;28;20065;-46
2023/01/30 13:31:15;;;;;;;11.32;10.63;;;;;;;;;;4994710;28;20034;-46
2023/01/30 13:33:44;;;;;;;10.57;9.98;;;;;;;;;;4994426;28;20031;-47
2023/01/30 13:36:23;;;;;;;10.90;10.20;;;;;;;;;;4997269;28;20600;-47
2023/01/30 13:38:58;;;;;;;10.27;9.68;;;;;;;;;;4997215;28;20058;-46
2023/01/30 13:41:24;;;;;;;10.55;9.90;;;;;;;;;;4994640;28;20739;-46
2023/01/30 13:43:52;;;;;;;10.32;9.73;;;;;;;;;;4994691;28;20049;-47
2023/01/30 13:46:25;;;;;;;10.00;9.40;;;;;;;;;;4997537;28;20109;-47
2023/01/30 13:49:19;;;;;;;9.65;9.05;;;;;;;;;;4997203;28;20041;-47
2023/01/30 13:51:57;;;;;;;10.82;10.18;;;;;;;;;;4993131;28;20440;-49
2023/01/30 13:54:44;;;;;;;11.15;10.45;;;;;;;;;;4994069;28;20042;-45
2023/01/30 13:57:20;;;;;;;10.35;9.68;;;;;;;;;;5000378;28;20034;-47
2023/01/30 14:00:27;;;;;;;10.43;9.82;;;;;;;;;;4997764;28;20092;-50
2023/01/30 14:03:01;;;;;;;10.13;9.52;;;;;;;;;;4996278;28;20233;-47
2023/01/30 14:05:59;;;;;;;10.57;9.98;;;;;;;;;;4997671;28;20068;-46
2023/01/30 14:08:57;;;;;;;10.35;9.75;;;;;;;;;;4997521;28;20125;-50
2023/01/30 14:11:29;;;;;;;10.85;10.15;;;;;;;;;;4997951;28;20665;-48
2023/01/30 14:14:01;;;;;;;11.13;10.23;;;;;;;;;;4996423;28;20049;-48
2023/01/30 14:16:45;;;;;;;10.10;9.50;;;;;;;;;;5000862;28;20298;-50
2023/01/30 14:19:23;;;;;;;11.43;10.73;;;;;;;;;;4996731;28;20157;-48
2023/01/30 14:22:00;;;;;;;10.63;10.02;;;;;;;;;;4995898;28;20057;-48
2023/01/30 14:24:26;;;;;;;10.52;9.93;;;;;;;;;;4994796;28;20206;-56
2023/01/30 14:26:57;;;;;;;10.90;10.20;;;;;;;;;;4998081;28;20472;-54
2023/01/30 14:29:52;;;;;;;;;;;;;;;;;;5000920;28;20371;-55
2023/01/30 14:32:51;;;;;;;11.20;10.50;;;;;;;;;;4993801;28;19918;-55
2023/01/30 14:35:20;;;;;;;10.52;9.93;;;;;;;;;;4996996;28;20633;-55
2023/01/30 14:37:49;;;;;;;9.90;9.30;;;;;;;;;;4996738;28;20123;-54
2023/01/30 14:40:21;;;;;;;11.13;10.10;;;;;;;;;;4996700;28;20030;-54
2023/01/30 14:43:11;;;;;;;10.07;9.48;;;;;;;;;;4996214;28;20034;-54
2023/01/30 14:45:53;;;;;;;10.27;9.68;;;;;;;;;;4998600;28;20125;-47
2023/01/30 14:48:28;;;;;;;10.00;9.40;;;;;;;;;;4996565;28;20037;-48